createdAt,value
2022-09-17T00:00:00.618Z,16
2022-09-17T00:01:00.746Z,19
2022-09-17T00:02:00.664Z,20
2022-09-17T00:03:00.673Z,18
2022-09-17T00:04:00.656Z,19
2022-09-17T00:05:00.620Z,18
2022-09-17T00:06:00.621Z,19
2022-09-17T00:07:00.621Z,18
2022-09-17T00:09:00.647Z,19
2022-09-17T00:10:00.622Z,21
2022-09-17T00:14:00.848Z,19
2022-09-17T00:15:00.623Z,19
2022-09-17T00:16:00.681Z,18
2022-09-17T00:17:01.951Z,19
2022-09-17T00:19:00.673Z,20
2022-09-17T00:20:00.627Z,19
2022-09-17T00:22:00.687Z,17
2022-09-17T00:23:00.625Z,19
2022-09-17T00:24:00.658Z,17
2022-09-17T00:25:00.623Z,18
2022-09-17T00:27:00.622Z,17
2022-09-17T00:28:00.623Z,16
2022-09-17T00:30:00.656Z,15
2022-09-17T00:31:00.640Z,16
2022-09-17T00:34:00.748Z,18
2022-09-17T00:35:00.659Z,16
2022-09-17T00:36:00.625Z,17
2022-09-17T00:37:00.625Z,18
2022-09-17T00:38:00.623Z,19
2022-09-17T00:40:00.726Z,20
2022-09-17T00:41:00.627Z,18
2022-09-17T00:42:00.626Z,17
2022-09-17T00:43:00.627Z,15
2022-09-17T00:45:00.653Z,16
2022-09-17T00:46:00.626Z,17
2022-09-17T00:47:00.627Z,19
2022-09-17T00:48:00.630Z,20
2022-09-17T00:49:00.632Z,21
2022-09-17T00:50:00.772Z,20
2022-09-17T00:52:00.902Z,18
2022-09-17T00:53:00.631Z,20
2022-09-17T00:54:00.627Z,19
2022-09-17T00:56:00.627Z,18
2022-09-17T00:57:00.625Z,19
2022-09-17T00:58:00.626Z,17
2022-09-17T01:00:00.651Z,16
2022-09-17T01:01:00.650Z,19
2022-09-17T01:02:00.664Z,20
2022-09-17T01:06:00.748Z,19
2022-09-17T01:07:00.626Z,17
2022-09-17T01:09:00.627Z,18
2022-09-17T01:12:00.692Z,19
2022-09-17T01:14:00.629Z,18
2022-09-17T01:15:00.629Z,17
2022-09-17T01:16:00.684Z,16
2022-09-17T01:17:00.629Z,15
2022-09-17T01:18:00.628Z,16
2022-09-17T01:21:00.693Z,15
2022-09-17T01:22:00.757Z,16
2022-09-17T01:23:00.631Z,17
2022-09-17T01:25:00.632Z,18
2022-09-17T01:26:00.658Z,19
2022-09-17T01:28:00.633Z,17
2022-09-17T01:30:00.632Z,17
2022-09-17T01:32:00.729Z,16
2022-09-17T01:33:00.635Z,18
2022-09-17T01:36:00.635Z,17
2022-09-17T01:37:00.663Z,18
2022-09-17T01:38:00.758Z,19
2022-09-17T01:39:00.635Z,18
2022-09-17T01:42:00.734Z,17
2022-09-17T01:43:00.635Z,14
2022-09-17T01:44:00.723Z,15
2022-09-17T01:45:00.634Z,14
2022-09-17T01:46:00.636Z,15
2022-09-17T01:47:00.671Z,16
2022-09-17T01:48:00.636Z,18
2022-09-17T01:49:00.635Z,16
2022-09-17T01:50:00.635Z,18
2022-09-17T01:52:00.801Z,19
2022-09-17T01:53:00.637Z,17
2022-09-17T01:54:00.773Z,19
2022-09-17T01:55:00.653Z,17
2022-09-17T01:58:00.672Z,16
2022-09-17T02:00:00.638Z,16
2022-09-17T02:01:00.720Z,17
2022-09-17T02:04:00.669Z,19
2022-09-17T02:07:00.642Z,17
2022-09-17T02:10:00.794Z,16
2022-09-17T02:11:01.667Z,17
2022-09-17T02:12:00.642Z,16
2022-09-17T02:13:00.674Z,18
2022-09-17T02:15:00.643Z,18
2022-09-17T02:17:00.642Z,19
2022-09-17T02:18:00.686Z,17
2022-09-17T02:19:00.643Z,16
2022-09-17T02:20:00.648Z,17
2022-09-17T02:21:00.643Z,16
2022-09-17T02:22:00.644Z,17
2022-09-17T02:23:00.674Z,19
2022-09-17T02:27:00.770Z,18
2022-09-17T02:28:06.708Z,16
2022-09-17T02:29:00.644Z,15
2022-09-17T02:30:00.646Z,14
2022-09-17T02:31:00.701Z,15
2022-09-17T02:32:00.647Z,16
2022-09-17T02:33:05.680Z,15
2022-09-17T02:34:00.758Z,18
2022-09-17T02:35:00.648Z,20
2022-09-17T02:36:00.674Z,19
2022-09-17T02:37:00.649Z,18
2022-09-17T02:39:00.675Z,20
2022-09-17T02:40:00.705Z,18
2022-09-17T02:41:01.676Z,19
2022-09-17T02:43:00.772Z,21
2022-09-17T02:44:01.709Z,20
2022-09-17T02:45:00.651Z,20
2022-09-17T02:48:00.652Z,18
2022-09-17T02:49:00.696Z,17
2022-09-17T02:50:00.654Z,18
2022-09-17T02:52:00.715Z,19
2022-09-17T02:53:00.652Z,20
2022-09-17T02:54:00.687Z,19
2022-09-17T02:55:00.652Z,17
2022-09-17T02:56:00.651Z,16
2022-09-17T02:59:00.804Z,17
2022-09-17T03:00:00.657Z,16
2022-09-17T03:01:00.701Z,17
2022-09-17T03:03:00.654Z,18
2022-09-17T03:05:00.682Z,19
2022-09-17T03:08:00.657Z,17
2022-09-17T03:09:00.660Z,16
2022-09-17T03:11:00.782Z,14
2022-09-17T03:12:00.669Z,13
2022-09-17T03:13:00.674Z,14
2022-09-17T03:15:00.792Z,15
2022-09-17T03:21:00.718Z,16
2022-09-17T03:22:00.653Z,18
2022-09-17T03:23:00.652Z,16
2022-09-17T03:24:00.657Z,17
2022-09-17T03:26:00.656Z,16
2022-09-17T03:28:00.654Z,17
2022-09-17T03:29:00.723Z,18
2022-09-17T03:30:00.655Z,18
2022-09-17T03:31:00.830Z,20
2022-09-17T03:32:00.654Z,19
2022-09-17T03:36:00.657Z,18
2022-09-17T03:41:00.725Z,17
2022-09-17T03:44:00.661Z,18
2022-09-17T03:45:00.661Z,18
2022-09-17T03:47:00.785Z,19
2022-09-17T03:49:00.666Z,18
2022-09-17T03:52:00.726Z,17
2022-09-17T03:53:00.661Z,16
2022-09-17T03:54:00.716Z,17
2022-09-17T03:59:00.662Z,18
2022-09-17T04:00:00.695Z,18
2022-09-17T04:01:00.663Z,19
2022-09-17T04:02:00.747Z,17
2022-09-17T04:04:00.840Z,15
2022-09-17T04:05:00.709Z,14
2022-09-17T04:07:00.665Z,16
2022-09-17T04:08:00.667Z,18
2022-09-17T04:10:00.693Z,19
2022-09-17T04:12:00.732Z,17
2022-09-17T04:13:00.667Z,15
2022-09-17T04:15:00.703Z,15
2022-09-17T04:17:00.666Z,17
2022-09-17T04:18:00.664Z,18
2022-09-17T04:20:00.815Z,19
2022-09-17T04:22:00.733Z,20
2022-09-17T04:27:00.668Z,19
2022-09-17T04:28:00.671Z,18
2022-09-17T04:29:00.670Z,19
2022-09-17T04:30:00.669Z,19
2022-09-17T04:31:00.686Z,18
2022-09-17T04:32:00.669Z,17
2022-09-17T04:34:01.695Z,18
2022-09-17T04:35:00.670Z,17
2022-09-17T04:38:00.796Z,16
2022-09-17T04:39:00.673Z,15
2022-09-17T04:40:02.840Z,14
2022-09-17T04:41:00.670Z,16
2022-09-17T04:43:00.678Z,18
2022-09-17T04:44:01.705Z,17
2022-09-17T04:45:00.672Z,16
2022-09-17T04:46:00.671Z,17
2022-09-17T04:48:00.671Z,16
2022-09-17T04:49:00.674Z,17
2022-09-17T04:50:00.673Z,18
2022-09-17T04:51:00.671Z,17
2022-09-17T04:52:00.674Z,18
2022-09-17T04:53:01.701Z,19
2022-09-17T04:54:00.799Z,18
2022-09-17T04:56:00.675Z,17
2022-09-17T04:57:01.700Z,16
2022-09-17T04:58:00.674Z,15
2022-09-17T04:59:00.678Z,17
2022-09-17T05:00:00.676Z,19
2022-09-17T05:01:00.711Z,20
2022-09-17T05:02:00.738Z,21
2022-09-17T05:04:01.701Z,18
2022-09-17T05:05:00.676Z,17
2022-09-17T05:06:00.675Z,16
2022-09-17T05:07:00.677Z,15
2022-09-17T05:08:00.687Z,16
2022-09-17T05:09:01.701Z,17
2022-09-17T05:15:00.871Z,17
2022-09-17T05:17:00.678Z,18
2022-09-17T05:19:01.707Z,17
2022-09-17T05:24:00.811Z,19
2022-09-17T05:25:01.708Z,20
2022-09-17T05:26:00.684Z,19
2022-09-17T05:27:00.724Z,18
2022-09-17T05:28:00.682Z,16
2022-09-17T05:29:00.801Z,15
2022-09-17T05:30:01.710Z,14
2022-09-17T05:31:00.902Z,13
2022-09-17T05:32:00.720Z,14
2022-09-17T05:33:00.687Z,18
2022-09-17T05:35:04.863Z,19
2022-09-17T05:36:00.685Z,20
2022-09-17T05:38:00.687Z,19
2022-09-17T05:40:00.724Z,20
2022-09-17T05:41:00.687Z,19
2022-09-17T05:42:00.726Z,18
2022-09-17T05:43:00.689Z,19
2022-09-17T05:44:00.778Z,18
2022-09-17T05:45:00.692Z,17
2022-09-17T05:46:00.688Z,18
2022-09-17T05:47:05.844Z,16
2022-09-17T05:49:00.690Z,19
2022-09-17T05:50:00.703Z,20
2022-09-17T05:52:00.781Z,21
2022-09-17T05:54:00.700Z,19
2022-09-17T05:55:00.689Z,18
2022-09-17T05:58:00.699Z,17
2022-09-17T05:59:00.761Z,19
2022-09-17T06:00:00.690Z,18
2022-09-17T06:01:00.691Z,19
2022-09-17T06:04:00.814Z,17
2022-09-17T06:08:00.694Z,19
2022-09-17T06:10:00.693Z,21
2022-09-17T06:12:00.785Z,20
2022-09-17T06:14:00.693Z,22
2022-09-17T06:15:00.695Z,21
2022-09-17T06:16:00.815Z,20
2022-09-17T06:17:00.733Z,19
2022-09-17T06:18:01.789Z,18
2022-09-17T06:19:00.786Z,16
2022-09-17T06:23:01.012Z,17
2022-09-17T06:24:00.761Z,16
2022-09-17T06:25:00.761Z,18
2022-09-17T06:28:00.697Z,16
2022-09-17T06:29:00.757Z,20
2022-09-17T06:30:00.696Z,20
2022-09-17T06:31:00.781Z,19
2022-09-17T06:32:00.707Z,20
2022-09-17T06:33:00.698Z,19
2022-09-17T06:34:01.756Z,17
2022-09-17T06:35:00.697Z,15
2022-09-17T06:36:00.697Z,17
2022-09-17T06:37:00.701Z,16
2022-09-17T06:38:00.762Z,17
2022-09-17T06:39:00.825Z,16
2022-09-17T06:40:00.732Z,17
2022-09-17T06:41:00.698Z,18
2022-09-17T06:43:00.699Z,19
2022-09-17T06:44:00.749Z,21
2022-09-17T06:45:04.248Z,20
2022-09-17T06:46:00.700Z,19
2022-09-17T06:48:00.700Z,20
2022-09-17T06:49:00.700Z,19
2022-09-17T06:50:00.699Z,20
2022-09-17T06:51:00.711Z,19
2022-09-17T06:54:00.701Z,18
2022-09-17T06:57:00.861Z,17
2022-09-17T06:58:00.704Z,15
2022-09-17T06:59:00.730Z,16
2022-09-17T07:00:00.708Z,15
2022-09-17T07:02:00.863Z,16
2022-09-17T07:03:00.704Z,20
2022-09-17T07:04:00.702Z,19
2022-09-17T07:05:00.703Z,22
2022-09-17T07:06:00.705Z,21
2022-09-17T07:07:00.816Z,20
2022-09-17T07:08:00.704Z,16
2022-09-17T07:09:00.704Z,17
2022-09-17T07:10:00.705Z,16
2022-09-17T07:11:00.709Z,17
2022-09-17T07:12:00.748Z,19
2022-09-17T07:13:00.826Z,20
2022-09-17T07:15:00.708Z,20
2022-09-17T07:16:00.819Z,19
2022-09-17T07:18:00.708Z,18
2022-09-17T07:19:00.708Z,17
2022-09-17T07:20:00.708Z,16
2022-09-17T07:21:00.707Z,17
2022-09-17T07:22:00.711Z,16
2022-09-17T07:23:00.751Z,17
2022-09-17T07:24:00.711Z,20
2022-09-17T07:27:00.708Z,18
2022-09-17T07:28:00.742Z,17
2022-09-17T07:29:00.896Z,16
2022-09-17T07:30:00.709Z,14
2022-09-17T07:33:00.815Z,16
2022-09-17T07:34:00.710Z,17
2022-09-17T07:35:00.713Z,16
2022-09-17T07:36:00.709Z,18
2022-09-17T07:37:00.709Z,19
2022-09-17T07:38:00.745Z,18
2022-09-17T07:39:00.709Z,17
2022-09-17T07:40:00.755Z,20
2022-09-17T07:41:00.714Z,19
2022-09-17T07:42:00.710Z,20
2022-09-17T07:43:00.737Z,19
2022-09-17T07:44:00.764Z,20
2022-09-17T07:45:02.068Z,19
2022-09-17T07:46:00.715Z,18
2022-09-17T07:47:00.778Z,17
2022-09-17T07:48:05.753Z,19
2022-09-17T07:49:00.710Z,18
2022-09-17T07:50:00.711Z,16
2022-09-17T07:53:01.840Z,14
2022-09-17T07:54:00.713Z,15
2022-09-17T07:55:00.712Z,16
2022-09-17T07:56:00.725Z,18
2022-09-17T07:57:00.711Z,17
2022-09-17T07:58:00.759Z,19
2022-09-17T07:59:01.802Z,20
2022-09-17T08:00:00.716Z,19
2022-09-17T08:01:00.845Z,18
2022-09-17T08:04:00.745Z,17
2022-09-17T08:05:00.714Z,18
2022-09-17T08:07:00.713Z,19
2022-09-17T08:08:00.714Z,17
2022-09-17T08:10:00.751Z,19
2022-09-17T08:12:00.714Z,18
2022-09-17T08:13:01.739Z,19
2022-09-17T08:15:00.760Z,17
2022-09-17T08:17:00.839Z,16
2022-09-17T08:18:00.716Z,15
2022-09-17T08:19:00.714Z,13
2022-09-17T08:20:00.745Z,14
2022-09-17T08:21:02.766Z,13
2022-09-17T08:22:01.742Z,15
2022-09-17T08:23:00.715Z,17
2022-09-17T08:24:00.714Z,19
2022-09-17T08:25:00.750Z,17
2022-09-17T08:26:00.715Z,18
2022-09-17T08:27:00.716Z,20
2022-09-17T08:28:00.719Z,19
2022-09-17T08:30:00.757Z,20
2022-09-17T08:32:00.781Z,19
2022-09-17T08:34:00.837Z,18
2022-09-17T08:35:00.767Z,17
2022-09-17T08:37:00.719Z,15
2022-09-17T08:38:00.715Z,14
2022-09-17T08:39:00.716Z,17
2022-09-17T08:40:00.778Z,16
2022-09-17T08:41:00.725Z,17
2022-09-17T08:42:00.723Z,18
2022-09-17T08:43:00.718Z,20
2022-09-17T08:44:00.731Z,17
2022-09-17T08:45:01.064Z,17
2022-09-17T08:46:00.717Z,16
2022-09-17T08:51:04.348Z,17
2022-09-17T08:53:00.722Z,16
2022-09-17T08:54:00.722Z,19
2022-09-17T08:55:00.724Z,21
2022-09-17T08:56:00.721Z,20
2022-09-17T08:58:00.724Z,19
2022-09-17T08:59:00.772Z,18
2022-09-17T09:00:00.723Z,17
2022-09-17T09:01:00.725Z,19
2022-09-17T09:03:00.748Z,20
2022-09-17T09:04:00.723Z,21
2022-09-17T09:05:00.725Z,19
2022-09-17T09:07:00.888Z,20
2022-09-17T09:08:00.724Z,21
2022-09-17T09:09:00.731Z,20
2022-09-17T09:10:00.724Z,18
2022-09-17T09:11:00.727Z,17
2022-09-17T09:12:00.774Z,14
2022-09-17T09:14:00.725Z,13
2022-09-17T09:15:00.735Z,16
2022-09-17T09:17:00.755Z,19
2022-09-17T09:22:00.886Z,18
2022-09-17T09:24:00.849Z,19
2022-09-17T09:25:00.726Z,18
2022-09-17T09:27:00.769Z,19
2022-09-17T09:29:00.726Z,20
2022-09-17T09:30:00.726Z,21
2022-09-17T09:34:00.857Z,20
2022-09-17T09:37:00.729Z,19
2022-09-17T09:39:00.731Z,20
2022-09-17T09:41:00.926Z,18
2022-09-17T09:42:00.732Z,16
2022-09-17T09:44:04.949Z,14
2022-09-17T09:45:04.884Z,14
2022-09-17T09:46:00.748Z,17
2022-09-17T09:47:00.792Z,18
2022-09-17T09:48:00.733Z,17
2022-09-17T09:51:07.728Z,16
2022-09-17T09:52:00.734Z,15
2022-09-17T09:54:00.761Z,14
2022-09-17T09:55:00.731Z,16
2022-09-17T09:56:00.740Z,17
2022-09-17T09:57:00.856Z,18
2022-09-17T09:59:00.942Z,20
2022-09-17T10:00:00.736Z,17
2022-09-17T10:01:00.733Z,16
2022-09-17T10:02:00.824Z,15
2022-09-17T10:03:00.795Z,16
2022-09-17T10:04:00.733Z,14
2022-09-17T10:05:00.733Z,15
2022-09-17T10:07:00.735Z,14
2022-09-17T10:08:00.778Z,15
2022-09-17T10:09:00.734Z,16
2022-09-17T10:10:00.735Z,17
2022-09-17T10:11:00.735Z,16
2022-09-17T10:13:00.893Z,15
2022-09-17T10:14:00.737Z,14
2022-09-17T10:15:00.740Z,12
2022-09-17T10:16:01.860Z,15
2022-09-17T10:19:00.773Z,18
2022-09-17T10:20:00.738Z,19
2022-09-17T10:21:00.733Z,18
2022-09-17T10:22:00.734Z,19
2022-09-17T10:23:00.735Z,20
2022-09-17T10:24:00.764Z,19
2022-09-17T10:26:00.736Z,20
2022-09-17T10:27:00.734Z,19
2022-09-17T10:28:00.736Z,20
2022-09-17T10:30:01.018Z,19
2022-09-17T10:31:03.147Z,20
2022-09-17T10:33:00.735Z,19
2022-09-17T10:34:00.770Z,20
2022-09-17T10:37:00.735Z,18
2022-09-17T10:38:00.735Z,19
2022-09-17T10:39:00.771Z,20
2022-09-17T10:40:00.778Z,19
2022-09-17T10:41:00.737Z,18
2022-09-17T10:42:00.736Z,19
2022-09-17T10:43:00.735Z,17
2022-09-17T10:44:00.790Z,15
2022-09-17T10:45:00.738Z,14
2022-09-17T10:46:00.868Z,15
2022-09-17T10:48:00.736Z,17
2022-09-17T10:49:05.768Z,18
2022-09-17T10:50:00.735Z,19
2022-09-17T10:51:00.735Z,18
2022-09-17T10:53:00.737Z,16
2022-09-17T10:56:00.770Z,16
2022-09-17T10:57:00.734Z,17
2022-09-17T10:58:00.734Z,18
2022-09-17T11:00:00.765Z,19
2022-09-17T11:02:00.972Z,18
2022-09-17T11:03:00.784Z,17
2022-09-17T11:04:01.773Z,19
2022-09-17T11:05:00.783Z,17
2022-09-17T11:06:00.739Z,19
2022-09-17T11:07:00.740Z,18
2022-09-17T11:09:00.739Z,16
2022-09-17T11:10:00.769Z,15
2022-09-17T11:12:00.867Z,16
2022-09-17T11:13:01.831Z,17
2022-09-17T11:14:00.850Z,18
2022-09-17T11:15:00.740Z,18
2022-09-17T11:17:00.741Z,17
2022-09-17T11:20:00.864Z,18
2022-09-17T11:22:00.806Z,19
2022-09-17T11:26:01.258Z,18
2022-09-17T11:29:00.920Z,17
2022-09-17T11:30:00.777Z,18
2022-09-17T11:31:00.806Z,17
2022-09-17T11:32:00.831Z,15
2022-09-17T11:34:00.744Z,16
2022-09-17T11:36:00.872Z,18
2022-09-17T11:37:00.744Z,19
2022-09-17T11:39:00.743Z,17
2022-09-17T11:40:00.804Z,16
2022-09-17T11:41:00.770Z,18
2022-09-17T11:42:00.743Z,19
2022-09-17T11:43:00.743Z,18
2022-09-17T11:44:00.785Z,19
2022-09-17T11:45:00.743Z,20
2022-09-17T11:46:00.780Z,19
2022-09-17T11:47:00.811Z,18
2022-09-17T11:51:00.919Z,16
2022-09-17T11:52:00.864Z,17
2022-09-17T11:54:00.746Z,16
2022-09-17T11:57:00.743Z,17
2022-09-17T11:59:00.925Z,18
2022-09-17T12:00:00.744Z,18
2022-09-17T12:01:00.779Z,20
2022-09-17T12:02:00.786Z,22
2022-09-17T12:03:00.861Z,23
2022-09-17T12:04:00.743Z,21
2022-09-17T12:05:00.747Z,22
2022-09-17T12:07:00.743Z,21
2022-09-17T12:08:00.861Z,18
2022-09-17T12:09:00.742Z,19
2022-09-17T12:10:00.745Z,17
2022-09-17T12:11:00.742Z,16
2022-09-17T12:12:00.806Z,13
2022-09-17T12:13:00.751Z,14
2022-09-17T12:15:00.745Z,15
2022-09-17T12:16:00.824Z,17
2022-09-17T12:17:00.889Z,18
2022-09-17T12:18:27.583Z,17
2022-09-17T12:19:00.724Z,18
2022-09-17T12:20:00.745Z,19
2022-09-17T12:21:00.746Z,17
2022-09-17T12:22:00.908Z,15
2022-09-17T12:25:00.871Z,14
2022-09-17T12:26:00.746Z,15
2022-09-17T12:27:00.775Z,18
2022-09-17T12:29:00.945Z,19
2022-09-17T12:30:00.970Z,20
2022-09-17T12:31:00.787Z,19
2022-09-17T12:32:00.785Z,18
2022-09-17T12:33:00.748Z,19
2022-09-17T12:35:00.746Z,18
2022-09-17T12:36:04.304Z,20
2022-09-17T12:38:00.793Z,19
2022-09-17T12:41:00.935Z,17
2022-09-17T12:44:00.847Z,16
2022-09-17T12:45:00.749Z,16
2022-09-17T12:50:00.752Z,17
2022-09-17T12:52:00.755Z,19
2022-09-17T12:53:00.759Z,18
2022-09-17T12:54:00.784Z,17
2022-09-17T12:55:00.754Z,16
2022-09-17T12:56:00.754Z,15
2022-09-17T12:58:00.908Z,16
2022-09-17T13:00:03.926Z,16
2022-09-17T13:01:00.816Z,18
2022-09-17T13:03:00.797Z,16
2022-09-17T13:05:01.903Z,17
2022-09-17T13:06:00.755Z,16
2022-09-17T13:07:01.778Z,17
2022-09-17T13:09:00.756Z,16
2022-09-17T13:10:00.757Z,18
2022-09-17T13:11:00.755Z,19
2022-09-17T13:12:00.757Z,17
2022-09-17T13:13:00.756Z,19
2022-09-17T13:14:00.883Z,21
2022-09-17T13:15:00.757Z,19
2022-09-17T13:16:00.810Z,18
2022-09-17T13:17:00.834Z,19
2022-09-17T13:18:20.536Z,17
2022-09-17T13:19:17.157Z,14
2022-09-17T13:20:00.734Z,13
2022-09-17T13:24:00.892Z,14
2022-09-17T13:25:00.823Z,16
2022-09-17T13:26:00.826Z,17
2022-09-17T13:28:00.764Z,19
2022-09-17T13:30:00.954Z,18
2022-09-17T13:31:00.905Z,17
2022-09-17T13:32:00.762Z,18
2022-09-17T13:33:00.762Z,17
2022-09-17T13:34:00.763Z,18
2022-09-17T13:35:01.785Z,20
2022-09-17T13:37:01.786Z,19
2022-09-17T13:42:00.763Z,18
2022-09-17T13:43:01.819Z,19
2022-09-17T13:44:00.761Z,18
2022-09-17T13:45:00.763Z,17
2022-09-17T13:48:00.925Z,15
2022-09-17T13:49:01.792Z,13
2022-09-17T13:52:00.828Z,14
2022-09-17T13:53:00.935Z,16
2022-09-17T13:54:00.833Z,17
2022-09-17T13:55:00.807Z,18
2022-09-17T13:56:00.866Z,19
2022-09-17T13:57:00.783Z,18
2022-09-17T13:58:01.879Z,16
2022-09-17T13:59:00.849Z,17
2022-09-17T14:00:03.877Z,17
2022-09-17T14:02:01.877Z,18
2022-09-17T14:03:06.073Z,19
2022-09-17T14:04:00.967Z,20
2022-09-17T14:05:00.809Z,18
2022-09-17T14:06:00.770Z,17
2022-09-17T14:07:00.870Z,15
2022-09-17T14:09:00.929Z,14
2022-09-17T14:10:00.886Z,15
2022-09-17T14:11:00.886Z,17
2022-09-17T14:15:00.766Z,16
2022-09-17T14:16:00.849Z,15
2022-09-17T14:17:00.765Z,16
2022-09-17T14:18:00.770Z,18
2022-09-17T14:20:00.892Z,19
2022-09-17T14:22:00.934Z,17
2022-09-17T14:25:00.767Z,18
2022-09-17T14:26:00.777Z,19
2022-09-17T14:27:00.770Z,22
2022-09-17T14:28:00.766Z,21
2022-09-17T14:30:00.767Z,21
2022-09-17T14:33:00.837Z,19
2022-09-17T14:34:00.820Z,18
2022-09-17T14:36:00.896Z,17
2022-09-17T14:37:00.770Z,16
2022-09-17T14:39:00.770Z,17
2022-09-17T14:40:00.838Z,16
2022-09-17T14:43:00.899Z,17
2022-09-17T14:45:00.772Z,17
2022-09-17T14:46:00.773Z,19
2022-09-17T14:49:00.783Z,18
2022-09-17T14:50:00.775Z,17
2022-09-17T14:51:00.775Z,14
2022-09-17T14:52:00.893Z,16
2022-09-17T14:53:00.775Z,15
2022-09-17T14:54:00.776Z,17
2022-09-17T14:55:01.908Z,18
2022-09-17T14:56:00.797Z,19
2022-09-17T14:57:00.775Z,20
2022-09-17T14:58:00.775Z,21
2022-09-17T14:59:00.783Z,19
2022-09-17T15:00:00.828Z,18
2022-09-17T15:02:00.946Z,16
2022-09-17T15:03:00.838Z,15
2022-09-17T15:04:00.913Z,16
2022-09-17T15:06:01.280Z,18
2022-09-17T15:08:00.897Z,19
2022-09-17T15:10:00.778Z,20
2022-09-17T15:11:00.817Z,19
2022-09-17T15:12:00.780Z,20
2022-09-17T15:13:03.492Z,19
2022-09-17T15:14:00.842Z,20
2022-09-17T15:15:00.798Z,20
2022-09-17T15:16:00.834Z,21
2022-09-17T15:17:00.781Z,19
2022-09-17T15:18:00.782Z,20
2022-09-17T15:19:00.853Z,18
2022-09-17T15:21:00.892Z,16
2022-09-17T15:22:00.783Z,18
2022-09-17T15:23:00.784Z,17
2022-09-17T15:27:00.970Z,16
2022-09-17T15:29:00.791Z,18
2022-09-17T15:30:00.784Z,17
2022-09-17T15:31:00.847Z,16
2022-09-17T15:33:00.784Z,15
2022-09-17T15:34:00.979Z,14
2022-09-17T15:35:00.784Z,16
2022-09-17T15:36:00.784Z,15
2022-09-17T15:38:21.566Z,16
2022-09-17T15:39:00.765Z,17
2022-09-17T15:41:00.848Z,18
2022-09-17T15:43:00.909Z,17
2022-09-17T15:45:00.785Z,17
2022-09-17T15:46:00.784Z,15
2022-09-17T15:47:00.839Z,17
2022-09-17T15:48:00.785Z,18
2022-09-17T15:49:00.831Z,16
2022-09-17T15:50:00.786Z,15
2022-09-17T15:51:00.784Z,17
2022-09-17T15:52:00.786Z,15
2022-09-17T15:53:01.810Z,14
2022-09-17T15:54:00.789Z,18
2022-09-17T15:56:00.785Z,17
2022-09-17T15:58:00.787Z,20
2022-09-17T15:59:00.909Z,19
2022-09-17T16:00:00.785Z,18
2022-09-17T16:01:00.785Z,19
2022-09-17T16:02:00.899Z,18
2022-09-17T16:03:00.826Z,16
2022-09-17T16:04:00.945Z,18
2022-09-17T16:05:01.811Z,21
2022-09-17T16:06:04.599Z,20
2022-09-17T16:07:00.784Z,21
2022-09-17T16:08:00.783Z,22
2022-09-17T16:10:01.808Z,20
2022-09-17T16:12:00.848Z,21
2022-09-17T16:13:00.783Z,20
2022-09-17T16:14:00.792Z,18
2022-09-17T16:15:00.905Z,20
2022-09-17T16:17:00.792Z,19
2022-09-17T16:19:00.947Z,18
2022-09-17T16:21:00.912Z,17
2022-09-17T16:22:00.784Z,16
2022-09-17T16:23:00.784Z,17
2022-09-17T16:25:00.784Z,16
2022-09-17T16:27:00.783Z,17
2022-09-17T16:28:01.809Z,16
2022-09-17T16:30:00.804Z,17
2022-09-17T16:31:00.918Z,16
2022-09-17T16:34:00.982Z,18
2022-09-17T16:35:00.785Z,19
2022-09-17T16:36:00.788Z,20
2022-09-17T16:38:00.789Z,19
2022-09-17T16:40:00.828Z,18
2022-09-17T16:41:00.787Z,19
2022-09-17T16:42:00.788Z,18
2022-09-17T16:43:00.789Z,20
2022-09-17T16:44:00.788Z,18
2022-09-17T16:45:00.788Z,17
2022-09-17T16:48:00.916Z,16
2022-09-17T16:49:00.881Z,15
2022-09-17T16:50:00.858Z,16
2022-09-17T16:51:00.791Z,15
2022-09-17T16:52:00.789Z,17
2022-09-17T16:53:04.837Z,16
2022-09-17T16:54:00.789Z,17
2022-09-17T16:55:00.790Z,16
2022-09-17T16:56:00.790Z,18
2022-09-17T16:57:00.791Z,17
2022-09-17T16:58:00.792Z,16
2022-09-17T16:59:00.793Z,17
2022-09-17T17:00:00.892Z,19
2022-09-17T17:01:00.829Z,18
2022-09-17T17:02:00.793Z,17
2022-09-17T17:03:00.890Z,18
2022-09-17T17:04:01.090Z,17
2022-09-17T17:05:00.927Z,16
2022-09-17T17:06:00.818Z,15
2022-09-17T17:07:00.792Z,18
2022-09-17T17:09:00.793Z,19
2022-09-17T17:11:00.930Z,20
2022-09-17T17:12:00.868Z,17
2022-09-17T17:14:00.897Z,16
2022-09-17T17:15:00.876Z,17
2022-09-17T17:16:00.815Z,16
2022-09-17T17:17:00.832Z,17
2022-09-17T17:22:01.073Z,16
2022-09-17T17:24:00.792Z,17
2022-09-17T17:25:00.791Z,16
2022-09-17T17:26:00.841Z,14
2022-09-17T17:27:00.827Z,15
2022-09-17T17:30:00.794Z,15
2022-09-17T17:31:00.888Z,16
2022-09-17T17:32:00.802Z,15
2022-09-17T17:33:00.887Z,17
2022-09-17T17:36:04.119Z,18
2022-09-17T17:38:01.033Z,16
2022-09-17T17:41:00.909Z,15
2022-09-17T17:43:00.869Z,16
2022-09-17T17:45:00.792Z,15
2022-09-17T17:46:00.910Z,16
2022-09-17T17:47:00.842Z,15
2022-09-17T17:48:00.795Z,13
2022-09-17T17:49:00.967Z,15
2022-09-17T17:52:00.858Z,16
2022-09-17T17:53:00.793Z,18
2022-09-17T17:57:00.914Z,19
2022-09-17T17:58:01.707Z,18
2022-09-17T17:59:00.792Z,17
2022-09-17T18:00:00.792Z,17
2022-09-17T18:01:00.794Z,16
2022-09-17T18:02:00.934Z,15
2022-09-17T18:04:01.067Z,14
2022-09-17T18:05:04.058Z,15
2022-09-17T18:09:00.793Z,17
2022-09-17T18:10:00.798Z,18
2022-09-17T18:11:00.797Z,17
2022-09-17T18:12:00.864Z,19
2022-09-17T18:13:00.915Z,18
2022-09-17T18:14:00.795Z,17
2022-09-17T18:15:00.797Z,14
2022-09-17T18:16:01.899Z,13
2022-09-17T18:17:00.796Z,11
2022-09-17T18:18:00.795Z,12
2022-09-17T18:19:00.876Z,13
2022-09-17T18:20:00.795Z,14
2022-09-17T18:21:00.805Z,16
2022-09-17T18:22:00.803Z,17
2022-09-17T18:24:00.859Z,16
2022-09-17T18:25:00.795Z,19
2022-09-17T18:26:00.795Z,18
2022-09-17T18:27:00.796Z,17
2022-09-17T18:28:00.795Z,15
2022-09-17T18:30:00.913Z,13
2022-09-17T18:32:00.925Z,14
2022-09-17T18:33:00.798Z,16
2022-09-17T18:34:00.823Z,17
2022-09-17T18:35:00.797Z,18
2022-09-17T18:36:00.802Z,20
2022-09-17T18:37:00.800Z,22
2022-09-17T18:38:00.801Z,20
2022-09-17T18:39:10.981Z,18
2022-09-17T18:41:00.824Z,16
2022-09-17T18:42:00.799Z,15
2022-09-17T18:43:00.864Z,17
2022-09-17T18:45:00.871Z,18
2022-09-17T18:46:01.063Z,17
2022-09-17T18:47:00.875Z,19
2022-09-17T18:48:00.799Z,17
2022-09-17T18:49:00.966Z,19
2022-09-17T18:50:00.798Z,18
2022-09-17T18:52:05.959Z,17
2022-09-17T18:54:00.799Z,16
2022-09-17T18:55:00.800Z,14
2022-09-17T18:56:01.829Z,16
2022-09-17T18:57:00.828Z,15
2022-09-17T18:59:03.344Z,14
2022-09-17T19:00:00.806Z,16
2022-09-17T19:01:01.889Z,17
2022-09-17T19:02:00.997Z,18
2022-09-17T19:04:00.917Z,20
2022-09-17T19:05:00.803Z,19
2022-09-17T19:06:00.800Z,17
2022-09-17T19:07:01.872Z,19
2022-09-17T19:08:00.800Z,18
2022-09-17T19:09:00.813Z,17
2022-09-17T19:10:00.801Z,18
2022-09-17T19:11:00.801Z,17
2022-09-17T19:12:01.855Z,15
2022-09-17T19:15:00.804Z,16
2022-09-17T19:16:00.859Z,15
2022-09-17T19:17:00.842Z,16
2022-09-17T19:18:00.925Z,18
2022-09-17T19:21:00.931Z,17
2022-09-17T19:22:00.831Z,18
2022-09-17T19:23:03.881Z,17
2022-09-17T19:24:00.804Z,18
2022-09-17T19:25:00.803Z,19
2022-09-17T19:26:01.830Z,18
2022-09-17T19:27:00.836Z,17
2022-09-17T19:28:01.830Z,18
2022-09-17T19:29:00.803Z,17
2022-09-17T19:30:00.805Z,18
2022-09-17T19:31:02.020Z,19
2022-09-17T19:32:00.846Z,20
2022-09-17T19:34:00.980Z,21
2022-09-17T19:35:00.805Z,18
2022-09-17T19:36:00.806Z,19
2022-09-17T19:37:00.834Z,18
2022-09-17T19:39:00.808Z,17
2022-09-17T19:40:00.823Z,18
2022-09-17T19:42:00.913Z,17
2022-09-17T19:43:00.810Z,16
2022-09-17T19:44:00.807Z,18
2022-09-17T19:45:00.807Z,18
2022-09-17T19:46:00.856Z,17
2022-09-17T19:48:00.836Z,19
2022-09-17T19:49:00.829Z,18
2022-09-17T19:50:00.936Z,17
2022-09-17T19:51:00.810Z,18
2022-09-17T19:52:00.846Z,17
2022-09-17T19:53:00.811Z,18
2022-09-17T19:54:00.813Z,19
2022-09-17T19:55:00.813Z,18
2022-09-17T19:56:00.812Z,19
2022-09-17T20:00:00.935Z,19
2022-09-17T20:02:00.918Z,20
2022-09-17T20:03:00.889Z,19
2022-09-17T20:05:00.814Z,20
2022-09-17T20:06:00.953Z,21
2022-09-17T20:07:00.920Z,20
2022-09-17T20:08:00.933Z,18
2022-09-17T20:09:00.919Z,15
2022-09-17T20:10:00.858Z,14
2022-09-17T20:11:00.884Z,13
2022-09-17T20:12:00.824Z,14
2022-09-17T20:13:00.877Z,15